createdAt,value
2022-11-27T00:01:36.414Z,4.25
2022-11-27T00:04:05.949Z,4.22
2022-11-27T00:06:34.956Z,4.16
2022-11-27T00:09:06.840Z,4.15
2022-11-27T00:11:34.867Z,4.16
2022-11-27T00:14:02.487Z,4.13
2022-11-27T00:16:30.454Z,4.11
2022-11-27T00:18:58.932Z,4.28
2022-11-27T00:21:31.272Z,4.37
2022-11-27T00:24:01.899Z,4.42
2022-11-27T00:26:35.914Z,4.37
2022-11-27T00:29:06.729Z,4.38
2022-11-27T00:31:37.459Z,4.37
2022-11-27T00:34:08.335Z,4.35
2022-11-27T00:36:37.223Z,4.37
2022-11-27T00:39:05.852Z,4.50
2022-11-27T00:41:33.702Z,4.19
2022-11-27T00:44:01.512Z,4.51
2022-11-27T00:46:31.620Z,4.36
2022-11-27T00:49:03.010Z,3.83
2022-11-27T00:51:31.344Z,4.00
2022-11-27T00:53:59.364Z,4.03
2022-11-27T00:56:34.088Z,3.99
2022-11-27T00:59:02.773Z,4.08
2022-11-27T01:01:35.118Z,3.80
2022-11-27T01:04:06.133Z,3.97
2022-11-27T01:06:34.670Z,3.72
2022-11-27T01:09:04.388Z,3.91
2022-11-27T01:11:34.709Z,3.83
2022-11-27T01:14:12.319Z,3.77
2022-11-27T01:16:43.152Z,3.92
2022-11-27T01:19:13.289Z,4.00
2022-11-27T01:21:41.035Z,4.03
2022-11-27T01:24:10.317Z,4.05
2022-11-27T01:26:37.817Z,3.85
2022-11-27T01:29:05.733Z,3.53
2022-11-27T01:31:34.849Z,3.73
2022-11-27T01:34:11.480Z,3.75
2022-11-27T01:36:39.498Z,3.89
2022-11-27T01:39:07.368Z,3.95
2022-11-27T01:41:41.369Z,3.95
2022-11-27T01:44:24.325Z,3.99
2022-11-27T01:46:58.811Z,4.03
2022-11-27T01:49:34.451Z,3.79
2022-11-27T01:52:20.490Z,3.65
2022-11-27T01:54:56.916Z,3.56
2022-11-27T01:57:44.775Z,3.25
2022-11-27T02:00:15.107Z,3.30
2022-11-27T02:02:44.343Z,3.42
2022-11-27T02:05:18.746Z,3.66
2022-11-27T02:07:47.675Z,3.54
2022-11-27T02:10:16.493Z,3.27
2022-11-27T02:13:26.459Z,2.99
2022-11-27T02:16:13.864Z,3.19
2022-11-27T02:19:22.725Z,3.21
2022-11-27T02:22:08.563Z,3.22
2022-11-27T02:24:49.635Z,3.31
2022-11-27T02:28:08.374Z,3.39
2022-11-27T02:30:44.440Z,3.70
2022-11-27T02:33:17.277Z,3.75
2022-11-27T02:36:13.787Z,3.73
2022-11-27T02:39:12.095Z,3.79
2022-11-27T02:41:50.462Z,3.59
2022-11-27T02:44:20.879Z,3.76
2022-11-27T02:46:49.994Z,3.71
2022-11-27T02:49:18.754Z,3.76
2022-11-27T02:51:56.537Z,3.72
2022-11-27T02:54:31.043Z,3.76
2022-11-27T02:57:05.168Z,3.84
2022-11-27T02:59:36.687Z,3.64
2022-11-27T03:02:14.452Z,3.72
2022-11-27T03:04:50.682Z,3.84
2022-11-27T03:07:43.627Z,3.58
2022-11-27T03:10:27.254Z,3.70
2022-11-27T03:12:55.059Z,3.83
2022-11-27T03:15:26.179Z,3.44
2022-11-27T03:17:59.634Z,3.64
2022-11-27T03:20:33.333Z,3.48
2022-11-27T03:23:01.075Z,3.41
2022-11-27T03:25:29.420Z,3.19
2022-11-27T03:28:02.384Z,3.00
2022-11-27T03:30:30.296Z,2.83
2022-11-27T03:32:58.624Z,2.91
2022-11-27T03:35:27.342Z,2.81
2022-11-27T03:37:56.290Z,3.10
2022-11-27T03:40:36.915Z,3.29
2022-11-27T03:43:23.807Z,3.46
2022-11-27T03:46:22.381Z,3.38
2022-11-27T03:49:21.396Z,3.44
2022-11-27T03:52:15.983Z,3.13
2022-11-27T03:55:08.490Z,2.92
2022-11-27T03:57:52.289Z,2.95
2022-11-27T04:00:48.927Z,2.77
2022-11-27T04:03:27.753Z,2.39
2022-11-27T04:05:56.211Z,2.37
2022-11-27T04:08:25.171Z,2.57
2022-11-27T04:10:52.703Z,2.46
2022-11-27T04:13:20.554Z,2.53
2022-11-27T04:15:48.329Z,2.47
2022-11-27T04:18:16.022Z,2.54
2022-11-27T04:20:43.954Z,2.73
2022-11-27T04:23:11.650Z,2.72
2022-11-27T04:25:39.227Z,3.04
2022-11-27T04:28:06.760Z,2.99
2022-11-27T04:30:34.589Z,2.96
2022-11-27T04:33:03.021Z,3.05
2022-11-27T04:35:31.051Z,2.69
2022-11-27T04:37:58.651Z,3.04
2022-11-27T04:40:26.213Z,2.94
2022-11-27T04:42:53.995Z,2.83
2022-11-27T04:45:21.964Z,2.86
2022-11-27T04:47:49.676Z,2.94
2022-11-27T04:50:17.393Z,2.77
2022-11-27T04:52:45.066Z,2.95
2022-11-27T04:55:12.759Z,2.69
2022-11-27T04:57:40.490Z,2.57
2022-11-27T05:00:09.099Z,2.60
2022-11-27T05:02:36.922Z,2.63
2022-11-27T05:05:05.445Z,2.14
2022-11-27T05:07:33.167Z,2.05
2022-11-27T05:10:01.013Z,2.05
2022-11-27T05:12:28.703Z,2.08
2022-11-27T05:14:58.671Z,2.29
2022-11-27T05:17:28.401Z,2.43
2022-11-27T05:19:55.971Z,2.52
2022-11-27T05:22:23.761Z,2.72
2022-11-27T05:24:51.548Z,2.41
2022-11-27T05:27:19.330Z,2.30
2022-11-27T05:30:12.590Z,2.37
2022-11-27T05:32:40.210Z,2.22
2022-11-27T05:35:08.422Z,2.22
2022-11-27T05:37:36.099Z,2.14
2022-11-27T05:40:04.090Z,2.11
2022-11-27T05:42:31.686Z,2.19
2022-11-27T05:44:59.258Z,2.27
2022-11-27T05:47:27.045Z,1.88
2022-11-27T05:49:54.761Z,1.83
2022-11-27T05:52:22.362Z,2.01
2022-11-27T05:54:49.986Z,1.98
2022-11-27T05:57:17.610Z,1.74
2022-11-27T05:59:45.346Z,1.42
2022-11-27T06:02:20.009Z,1.60
2022-11-27T06:04:49.322Z,1.82
2022-11-27T06:07:17.242Z,1.99
2022-11-27T06:09:45.099Z,2.23
2022-11-27T06:12:15.418Z,2.08
2022-11-27T06:14:43.226Z,2.10
2022-11-27T06:17:11.087Z,1.99
2022-11-27T06:19:38.793Z,2.03
2022-11-27T06:22:06.407Z,2.19
2022-11-27T06:24:37.935Z,2.13
2022-11-27T06:27:05.903Z,2.34
2022-11-27T06:29:33.653Z,2.17
2022-11-27T06:32:27.794Z,2.17
2022-11-27T06:34:55.402Z,2.27
2022-11-27T06:37:23.347Z,2.61
2022-11-27T06:39:51.264Z,2.64
2022-11-27T06:42:19.044Z,2.41
2022-11-27T06:44:47.769Z,2.62
2022-11-27T06:47:15.495Z,2.74
2022-11-27T06:49:43.196Z,2.58
2022-11-27T06:52:10.824Z,2.41
2022-11-27T06:54:38.639Z,2.27
2022-11-27T06:57:06.536Z,2.09
2022-11-27T06:59:34.250Z,2.45
2022-11-27T07:02:02.189Z,2.65
2022-11-27T07:04:29.904Z,2.72
2022-11-27T07:06:58.699Z,2.56
2022-11-27T07:09:26.353Z,2.62
2022-11-27T07:11:54.122Z,2.78
2022-11-27T07:14:21.772Z,2.84
2022-11-27T07:16:49.419Z,2.50
2022-11-27T07:19:17.074Z,2.24
2022-11-27T07:22:09.404Z,2.32
2022-11-27T07:24:37.108Z,2.25
2022-11-27T07:27:04.776Z,2.50
2022-11-27T07:29:32.458Z,2.50
2022-11-27T07:32:00.166Z,2.65
2022-11-27T07:34:27.810Z,2.61
2022-11-27T07:36:55.496Z,2.63
2022-11-27T07:39:54.073Z,2.79
2022-11-27T07:45:00.845Z,2.87
2022-11-27T07:47:30.582Z,2.36
2022-11-27T07:50:00.264Z,2.77
2022-11-27T07:52:28.063Z,2.74
2022-11-27T07:54:55.618Z,2.64
2022-11-27T07:57:23.225Z,2.35
2022-11-27T07:59:50.819Z,2.46
2022-11-27T08:02:18.438Z,2.53
2022-11-27T08:04:46.821Z,2.30
2022-11-27T08:07:14.572Z,2.41
2022-11-27T08:09:42.350Z,2.59
2022-11-27T08:12:09.999Z,2.70
2022-11-27T08:14:38.003Z,2.77
2022-11-27T08:17:05.977Z,2.78
2022-11-27T08:19:33.570Z,2.61
2022-11-27T08:22:01.275Z,2.82
2022-11-27T08:24:28.884Z,2.66
2022-11-27T08:27:01.433Z,2.45
2022-11-27T08:29:33.953Z,2.43
2022-11-27T08:32:02.272Z,2.66
2022-11-27T08:34:29.905Z,2.47
2022-11-27T08:36:57.555Z,2.51
2022-11-27T08:39:27.738Z,2.96
2022-11-27T08:41:55.702Z,3.00
2022-11-27T08:44:23.679Z,3.26
2022-11-27T08:46:51.290Z,2.59
2022-11-27T08:49:19.250Z,2.44
2022-11-27T08:51:47.027Z,2.52
2022-11-27T08:54:14.932Z,3.03
2022-11-27T08:56:42.944Z,3.08
2022-11-27T08:59:10.634Z,3.37
2022-11-27T09:01:38.467Z,2.74
2022-11-27T09:04:06.349Z,2.34
2022-11-27T09:06:37.084Z,2.58
2022-11-27T09:09:06.292Z,3.01
2022-11-27T09:11:35.719Z,2.54
2022-11-27T09:14:05.325Z,2.61
2022-11-27T09:16:33.180Z,3.28
2022-11-27T09:19:01.147Z,3.11
2022-11-27T09:21:30.745Z,3.33
2022-11-27T09:24:01.515Z,3.66
2022-11-27T09:26:30.088Z,4.09
2022-11-27T09:28:59.231Z,3.82
2022-11-27T09:31:27.417Z,4.55
2022-11-27T09:33:55.422Z,4.90
2022-11-27T09:36:26.199Z,5.30
2022-11-27T09:38:54.293Z,5.36
2022-11-27T09:41:25.104Z,5.20
2022-11-27T09:44:05.584Z,5.29
2022-11-27T09:46:39.185Z,4.99
2022-11-27T09:49:14.846Z,5.44
2022-11-27T09:52:21.510Z,5.24
2022-11-27T09:55:11.907Z,4.66
2022-11-27T09:57:42.755Z,4.77
2022-11-27T10:00:18.367Z,4.78
2022-11-27T10:02:46.393Z,5.11
2022-11-27T10:05:39.791Z,5.06
2022-11-27T10:08:31.469Z,4.94
2022-11-27T10:11:01.883Z,5.53
2022-11-27T10:14:06.475Z,6.09
2022-11-27T10:17:02.382Z,5.57
2022-11-27T10:19:47.195Z,6.11
2022-11-27T10:22:58.092Z,6.23
2022-11-27T10:25:54.165Z,6.42
2022-11-27T10:29:02.603Z,6.34
2022-11-27T10:31:57.737Z,6.44
2022-11-27T10:34:50.380Z,5.99
2022-11-27T10:37:50.347Z,5.98
2022-11-27T10:40:45.792Z,5.82
2022-11-27T10:43:24.653Z,6.09
2022-11-27T10:46:14.313Z,6.18
2022-11-27T10:48:42.511Z,6.19
2022-11-27T10:51:29.111Z,6.53
2022-11-27T10:53:59.379Z,6.75
2022-11-27T10:56:58.849Z,7.05
2022-11-27T10:59:34.623Z,7.02
2022-11-27T11:02:05.530Z,6.93
2022-11-27T11:04:38.375Z,6.88
2022-11-27T11:07:26.812Z,7.29
2022-11-27T11:10:01.312Z,7.55
2022-11-27T11:12:31.781Z,7.62
2022-11-27T11:15:01.567Z,7.60
2022-11-27T11:17:38.224Z,7.61
2022-11-27T11:20:24.412Z,7.98
2022-11-27T11:22:52.499Z,7.86
2022-11-27T11:25:21.977Z,7.74
2022-11-27T11:28:01.099Z,7.92
2022-11-27T11:30:30.264Z,8.10
2022-11-27T11:33:03.090Z,8.41
2022-11-27T11:35:34.714Z,8.59
2022-11-27T11:38:10.489Z,8.69
2022-11-27T11:40:38.558Z,8.93
2022-11-27T11:43:24.436Z,8.80
2022-11-27T11:45:52.119Z,8.55
2022-11-27T11:48:28.895Z,8.77
2022-11-27T11:51:16.290Z,9.35
2022-11-27T11:53:48.484Z,9.48
2022-11-27T11:56:41.634Z,9.22
2022-11-27T11:59:30.519Z,9.52
2022-11-27T12:02:25.007Z,9.83
2022-11-27T12:05:25.416Z,10.17
2022-11-27T12:08:13.613Z,10.29
2022-11-27T12:11:06.463Z,11.21
2022-11-27T12:13:58.368Z,12.30
2022-11-27T12:17:13.354Z,13.24
2022-11-27T12:19:54.039Z,13.94
2022-11-27T12:23:02.813Z,14.29
2022-11-27T12:25:53.624Z,15.06
2022-11-27T12:28:40.272Z,15.10
2022-11-27T12:31:28.282Z,15.54
2022-11-27T12:34:11.201Z,15.34
2022-11-27T12:37:26.668Z,16.05
2022-11-27T12:40:14.833Z,15.78
2022-11-27T12:43:06.885Z,16.36
2022-11-27T12:45:45.724Z,15.77
2022-11-27T12:49:03.203Z,16.41
2022-11-27T12:51:46.616Z,16.58
2022-11-27T12:54:57.107Z,17.57
2022-11-27T12:57:38.784Z,17.63
2022-11-27T13:00:21.153Z,17.66
2022-11-27T13:03:25.300Z,17.40
2022-11-27T13:06:14.984Z,16.65
2022-11-27T13:08:52.558Z,16.36
2022-11-27T13:11:27.841Z,15.48
2022-11-27T13:14:12.765Z,16.19
2022-11-27T13:16:49.007Z,16.29
2022-11-27T13:19:25.672Z,16.80
2022-11-27T13:21:56.249Z,17.83
2022-11-27T13:24:27.249Z,18.70
2022-11-27T13:27:24.173Z,18.11
2022-11-27T13:30:04.715Z,17.01
2022-11-27T13:32:37.726Z,17.29
2022-11-27T13:35:19.314Z,17.60
2022-11-27T13:37:56.601Z,17.79
2022-11-27T13:40:47.226Z,16.63
2022-11-27T13:43:32.501Z,16.38
2022-11-27T13:46:21.260Z,15.80
2022-11-27T13:49:09.117Z,15.15
2022-11-27T13:51:39.466Z,14.91
2022-11-27T13:54:15.828Z,14.43
2022-11-27T13:56:44.059Z,14.26
2022-11-27T13:59:29.522Z,14.04
2022-11-27T14:02:05.370Z,14.02
2022-11-27T14:04:35.233Z,13.91
2022-11-27T14:07:13.532Z,13.81
2022-11-27T14:09:58.984Z,13.59
2022-11-27T14:12:30.923Z,13.59
2022-11-27T14:15:16.620Z,13.69
2022-11-27T14:17:51.345Z,13.70
2022-11-27T14:20:22.996Z,13.63
2022-11-27T14:23:14.994Z,13.34
2022-11-27T14:25:42.767Z,13.31
2022-11-27T14:28:22.199Z,13.24
2022-11-27T14:30:55.388Z,13.39
2022-11-27T14:33:33.245Z,13.36
2022-11-27T14:36:07.808Z,13.13
2022-11-27T14:38:35.747Z,12.93
2022-11-27T14:41:16.707Z,12.44
2022-11-27T14:43:44.837Z,12.15
2022-11-27T14:46:19.703Z,12.27
2022-11-27T14:48:59.427Z,12.34
2022-11-27T14:51:35.090Z,12.34
2022-11-27T14:54:18.926Z,12.17
2022-11-27T14:56:47.187Z,11.96
2022-11-27T14:59:19.342Z,11.45
2022-11-27T15:02:11.652Z,11.40
2022-11-27T15:04:42.215Z,11.49
2022-11-27T15:07:22.205Z,11.50
2022-11-27T15:09:59.048Z,11.48
2022-11-27T15:12:29.788Z,11.38
2022-11-27T15:15:19.956Z,11.45
2022-11-27T15:17:57.953Z,11.48
2022-11-27T15:20:31.301Z,11.37
2022-11-27T15:23:00.329Z,11.05
2022-11-27T15:25:39.590Z,10.68
2022-11-27T15:28:44.708Z,10.75
2022-11-27T15:31:34.655Z,10.73
2022-11-27T15:34:06.382Z,10.64
2022-11-27T15:36:41.218Z,10.42
2022-11-27T15:39:45.812Z,10.59
2022-11-27T15:42:14.570Z,10.46
2022-11-27T15:44:42.676Z,10.44
2022-11-27T15:47:34.165Z,10.36
2022-11-27T15:50:02.852Z,10.40
2022-11-27T15:52:30.606Z,10.46
2022-11-27T15:54:58.360Z,10.24
2022-11-27T15:57:26.371Z,10.22
2022-11-27T15:59:54.080Z,10.23
2022-11-27T16:02:23.112Z,10.22
2022-11-27T16:04:51.012Z,10.16
2022-11-27T16:07:18.642Z,10.10
2022-11-27T16:09:47.792Z,10.10
2022-11-27T16:12:15.392Z,10.00
2022-11-27T16:14:43.308Z,9.98
2022-11-27T16:17:11.812Z,9.80
2022-11-27T16:19:39.572Z,9.97
2022-11-27T16:22:07.252Z,9.89
2022-11-27T16:24:34.871Z,9.78
2022-11-27T16:27:02.905Z,9.69
2022-11-27T16:29:30.569Z,9.84
2022-11-27T16:31:58.474Z,9.87
2022-11-27T16:34:26.661Z,9.85
2022-11-27T16:36:54.391Z,9.78
2022-11-27T16:39:22.179Z,9.79
2022-11-27T16:41:49.798Z,9.61
2022-11-27T16:44:18.859Z,9.34
2022-11-27T16:46:46.836Z,9.27
2022-11-27T16:49:14.818Z,9.44
2022-11-27T16:51:43.833Z,9.37
2022-11-27T16:54:14.424Z,9.41
2022-11-27T16:56:44.179Z,9.38
2022-11-27T16:59:14.602Z,9.36
2022-11-27T17:01:43.013Z,9.32
2022-11-27T17:04:18.670Z,9.02
2022-11-27T17:06:49.084Z,9.16
2022-11-27T17:09:17.545Z,9.20
2022-11-27T17:11:48.775Z,9.31
2022-11-27T17:14:17.176Z,9.24
2022-11-27T17:16:45.478Z,9.18
2022-11-27T17:19:16.099Z,8.90
2022-11-27T17:21:45.893Z,9.05
2022-11-27T17:24:16.469Z,9.02
2022-11-27T17:26:48.666Z,8.96
2022-11-27T17:29:20.863Z,9.01
2022-11-27T17:31:51.327Z,8.98
2022-11-27T17:34:20.688Z,8.97
2022-11-27T17:36:53.598Z,8.88
2022-11-27T17:39:21.851Z,8.42
2022-11-27T17:41:49.860Z,8.15
2022-11-27T17:44:20.293Z,8.32
2022-11-27T17:46:51.074Z,7.62
2022-11-27T17:49:21.817Z,7.32
2022-11-27T17:51:50.636Z,7.55
2022-11-27T17:54:19.376Z,7.57
2022-11-27T17:56:51.367Z,7.15
2022-11-27T17:59:20.496Z,6.95
2022-11-27T18:01:51.350Z,7.30
2022-11-27T18:04:20.043Z,7.56
2022-11-27T18:06:47.801Z,7.83
2022-11-27T18:09:15.428Z,8.01
2022-11-27T18:11:43.295Z,7.99
2022-11-27T18:14:13.625Z,7.76
2022-11-27T18:16:41.972Z,8.00
2022-11-27T18:19:11.212Z,8.08
2022-11-27T18:21:39.489Z,7.63
2022-11-27T18:24:22.916Z,7.65
2022-11-27T18:27:09.141Z,7.89
2022-11-27T18:29:41.002Z,7.52
2022-11-27T18:32:09.459Z,7.22
2022-11-27T18:34:37.300Z,7.54
2022-11-27T18:37:05.902Z,7.68
2022-11-27T18:39:35.317Z,7.13
2022-11-27T18:42:05.079Z,7.53
2022-11-27T18:44:39.714Z,7.81
2022-11-27T18:47:14.175Z,7.85
2022-11-27T18:49:47.747Z,7.62
2022-11-27T18:52:15.687Z,7.69
2022-11-27T18:54:44.265Z,7.53
2022-11-27T18:57:12.411Z,7.36
2022-11-27T18:59:43.461Z,7.59
2022-11-27T19:02:11.878Z,7.81
2022-11-27T19:04:44.407Z,7.74
2022-11-27T19:07:13.711Z,7.75
2022-11-27T19:09:41.869Z,7.99
2022-11-27T19:12:09.961Z,7.93
2022-11-27T19:14:38.060Z,7.64
2022-11-27T19:17:06.257Z,7.81
2022-11-27T19:19:53.877Z,7.92
2022-11-27T19:22:22.595Z,7.91
2022-11-27T19:24:50.433Z,8.00
2022-11-27T19:27:18.920Z,8.03
2022-11-27T19:29:52.785Z,8.15
2022-11-27T19:32:20.632Z,8.23
2022-11-27T19:34:50.868Z,8.11
2022-11-27T19:37:33.554Z,8.12
2022-11-27T19:40:02.079Z,8.16
2022-11-27T19:42:31.305Z,8.10
2022-11-27T19:45:01.972Z,8.02
2022-11-27T19:47:29.941Z,7.96
2022-11-27T19:50:00.812Z,7.96
2022-11-27T19:52:28.650Z,7.91
2022-11-27T19:54:56.372Z,8.02
2022-11-27T19:57:24.741Z,7.66
2022-11-27T19:59:52.418Z,7.98
2022-11-27T20:02:20.154Z,7.84
2022-11-27T20:04:48.215Z,7.99
2022-11-27T20:07:16.107Z,7.93
2022-11-27T20:09:44.222Z,7.70
2022-11-27T20:12:12.310Z,7.22
2022-11-27T20:14:40.509Z,7.38
2022-11-27T20:17:08.728Z,7.58
2022-11-27T20:19:36.588Z,7.65
2022-11-27T20:22:04.532Z,7.69
2022-11-27T20:24:32.623Z,7.74
2022-11-27T20:27:01.422Z,7.84
2022-11-27T20:29:29.538Z,7.86
2022-11-27T20:31:58.883Z,7.85
2022-11-27T20:34:27.284Z,7.82
2022-11-27T20:36:55.061Z,7.83
2022-11-27T20:39:23.210Z,7.95
2022-11-27T20:41:55.376Z,8.03
2022-11-27T20:44:24.422Z,8.11
2022-11-27T20:46:53.558Z,8.16
2022-11-27T20:49:21.871Z,8.10
2022-11-27T20:51:50.682Z,7.81
2022-11-27T20:54:22.933Z,7.97
2022-11-27T20:56:52.275Z,8.05
2022-11-27T20:59:21.547Z,7.94
2022-11-27T21:01:50.898Z,8.10
2022-11-27T21:04:25.987Z,8.20
2022-11-27T21:06:54.304Z,8.21
2022-11-27T21:09:22.304Z,7.54
2022-11-27T21:11:49.981Z,7.64
2022-11-27T21:14:18.451Z,7.78
2022-11-27T21:16:49.059Z,7.90
2022-11-27T21:19:27.924Z,7.84
2022-11-27T21:21:57.459Z,7.78
2022-11-27T21:24:28.377Z,7.75
2022-11-27T21:27:01.369Z,7.80
2022-11-27T21:29:29.145Z,7.52
2022-11-27T21:31:57.315Z,7.67
2022-11-27T21:34:25.789Z,7.51
2022-11-27T21:36:54.089Z,7.62
2022-11-27T21:39:21.863Z,7.77
2022-11-27T21:41:52.299Z,7.62
2022-11-27T21:44:22.184Z,7.70
2022-11-27T21:46:51.572Z,7.76
2022-11-27T21:49:21.046Z,7.75
2022-11-27T21:51:53.557Z,7.90
2022-11-27T21:54:25.078Z,7.98
2022-11-27T21:56:53.381Z,8.05
2022-11-27T21:59:27.246Z,8.12
2022-11-27T22:01:57.191Z,8.12
2022-11-27T22:04:26.487Z,8.14
2022-11-27T22:06:54.207Z,8.17
2022-11-27T22:09:21.891Z,8.03
2022-11-27T22:11:49.495Z,7.98
2022-11-27T22:14:17.633Z,8.07
2022-11-27T22:16:46.824Z,7.95
2022-11-27T22:19:16.773Z,7.96
2022-11-27T22:21:45.365Z,7.90
2022-11-27T22:24:18.887Z,7.92
2022-11-27T22:26:49.315Z,7.32
2022-11-27T22:29:17.157Z,7.28
2022-11-27T22:31:45.063Z,7.62
2022-11-27T22:34:15.576Z,7.69
2022-11-27T22:36:43.086Z,7.79
2022-11-27T22:39:11.149Z,7.92
2022-11-27T22:41:40.964Z,8.01
2022-11-27T22:44:18.591Z,8.05
2022-11-27T22:46:47.582Z,8.01
2022-11-27T22:49:17.792Z,7.95
2022-11-27T22:51:46.172Z,7.91
2022-11-27T22:54:16.957Z,7.78
2022-11-27T22:56:46.639Z,7.93
2022-11-27T22:59:32.629Z,7.77
2022-11-27T23:02:03.010Z,7.97
2022-11-27T23:04:31.111Z,7.24
2022-11-27T23:06:59.327Z,7.21
2022-11-27T23:09:27.356Z,7.32
2022-11-27T23:11:56.470Z,7.50
2022-11-27T23:14:26.196Z,7.72
2022-11-27T23:16:54.023Z,7.79
2022-11-27T23:19:21.712Z,7.64
2022-11-27T23:21:49.306Z,7.57
2022-11-27T23:24:17.155Z,7.54
2022-11-27T23:26:45.943Z,6.95
2022-11-27T23:29:14.291Z,7.39
2022-11-27T23:31:42.272Z,7.51
2022-11-27T23:34:15.396Z,7.66
2022-11-27T23:36:43.860Z,7.70
2022-11-27T23:39:13.462Z,7.64
2022-11-27T23:41:42.048Z,7.57
2022-11-27T23:44:09.815Z,7.37
2022-11-27T23:46:37.691Z,7.54
2022-11-27T23:49:05.507Z,7.59
2022-11-27T23:51:33.839Z,7.66
2022-11-27T23:54:01.959Z,7.70
2022-11-27T23:56:31.935Z,7.81
2022-11-27T23:59:00.713Z,7.68
